createdAt,value
2022-09-06T00:03:15.352Z,0
2022-09-06T00:09:35.316Z,0
2022-09-06T00:15:58.382Z,0
2022-09-06T00:22:18.345Z,0
2022-09-06T00:28:41.323Z,0
2022-09-06T00:35:01.314Z,0
2022-09-06T00:41:24.332Z,0
2022-09-06T00:47:44.309Z,0
2022-09-06T00:54:07.354Z,0
2022-09-06T01:00:27.320Z,0
2022-09-06T01:06:50.326Z,0
2022-09-06T01:13:10.348Z,0
2022-09-06T01:19:33.306Z,0
2022-09-06T01:25:53.356Z,0
2022-09-06T01:32:16.306Z,0
2022-09-06T01:38:36.338Z,0
2022-09-06T01:44:59.320Z,0
2022-09-06T01:51:19.354Z,0
2022-09-06T01:57:42.346Z,0
2022-09-06T02:04:02.294Z,0
2022-09-06T02:10:25.342Z,0
2022-09-06T02:16:45.370Z,0
2022-09-06T02:23:08.308Z,0
2022-09-06T02:29:28.335Z,0
2022-09-06T02:35:51.313Z,0
2022-09-06T02:42:11.314Z,0
2022-09-06T02:48:34.330Z,0
2022-09-06T02:54:54.301Z,0
2022-09-06T03:01:17.454Z,0
2022-09-06T03:07:37.297Z,0
2022-09-06T03:14:00.327Z,0
2022-09-06T03:20:20.334Z,0
2022-09-06T03:26:43.299Z,0
2022-09-06T03:33:03.347Z,0
2022-09-06T03:39:26.313Z,0
2022-09-06T03:45:46.379Z,0
2022-09-06T03:52:09.316Z,0
2022-09-06T04:14:39.303Z,0
2022-09-06T04:20:59.385Z,0
2022-09-06T04:27:22.321Z,1
2022-09-06T04:33:42.342Z,3
2022-09-06T04:40:05.378Z,11
2022-09-06T04:46:25.371Z,25
2022-09-06T04:52:48.317Z,52
2022-09-06T04:59:08.312Z,95
2022-09-06T05:05:31.338Z,155
2022-09-06T05:11:51.306Z,227
2022-09-06T05:18:16.215Z,302
2022-09-06T05:24:34.334Z,366
2022-09-06T05:30:57.356Z,424
2022-09-06T05:37:17.330Z,479
2022-09-06T05:43:40.322Z,526
2022-09-06T05:50:00.353Z,567
2022-09-06T05:56:23.315Z,604
2022-09-06T06:02:43.407Z,638
2022-09-06T06:09:06.331Z,674
2022-09-06T06:15:26.337Z,703
2022-09-06T06:21:49.370Z,735
2022-09-06T06:28:09.339Z,764
2022-09-06T06:34:32.400Z,791
2022-09-06T06:40:55.352Z,814
2022-09-06T06:47:15.332Z,839
2022-09-06T06:53:35.363Z,865
2022-09-06T06:59:58.317Z,890
2022-09-06T07:06:18.457Z,914
2022-09-06T07:12:41.344Z,941
2022-09-06T07:19:01.371Z,966
2022-09-06T07:25:24.357Z,995
2022-09-06T07:38:07.461Z,1053
2022-09-06T07:44:27.346Z,1091
2022-09-06T07:50:51.151Z,1144
2022-09-06T07:57:10.367Z,1211
2022-09-06T08:03:33.336Z,1262
2022-09-06T08:09:53.355Z,1331
2022-09-06T08:16:16.372Z,1416
2022-09-06T08:22:36.330Z,1501
2022-09-06T08:28:59.318Z,1587
2022-09-06T08:35:19.492Z,1669
2022-09-06T08:41:42.387Z,1736
2022-09-06T08:48:02.314Z,1808
2022-09-06T08:54:25.381Z,1956
2022-09-06T09:00:45.368Z,2081
2022-09-06T09:07:08.364Z,2189
2022-09-06T09:13:29.343Z,2296
2022-09-06T09:19:52.312Z,2389
2022-09-06T09:26:12.373Z,2482
2022-09-06T09:32:35.308Z,2559
2022-09-06T09:38:55.360Z,2638
2022-09-06T09:55:06.290Z,2847
2022-09-06T10:01:26.308Z,2954
2022-09-06T10:07:49.362Z,3024
2022-09-06T10:14:09.314Z,3117
2022-09-06T10:20:32.312Z,3190
2022-09-06T10:26:52.319Z,3269
2022-09-06T10:33:15.321Z,3360
2022-09-06T10:39:35.446Z,3494
2022-09-06T10:45:58.313Z,3627
2022-09-06T10:52:18.310Z,3739
2022-09-06T11:11:24.335Z,4071
2022-09-06T11:17:44.310Z,4222
2022-09-06T11:24:07.360Z,4394
2022-09-06T11:30:27.310Z,4567
2022-09-06T11:36:50.384Z,4772
2022-09-06T11:43:10.375Z,4946
2022-09-06T11:49:33.474Z,5167
2022-09-06T11:55:53.348Z,5517
2022-09-06T12:02:16.550Z,5646
2022-09-06T12:08:36.313Z,1069
2022-09-06T12:14:59.326Z,1172
2022-09-06T12:21:19.422Z,1297
2022-09-06T12:27:42.342Z,1428
2022-09-06T12:34:02.302Z,2273
2022-09-06T12:40:25.365Z,4559
2022-09-06T12:46:45.401Z,6798
2022-09-06T12:53:08.315Z,6977
2022-09-06T12:59:28.633Z,7911
2022-09-06T13:05:51.315Z,8963
2022-09-06T13:12:11.355Z,7978
2022-09-06T13:18:34.327Z,7256
2022-09-06T13:24:54.363Z,6900
2022-09-06T13:31:17.375Z,7133
2022-09-06T13:37:37.401Z,7367
2022-09-06T13:44:00.320Z,7863
2022-09-06T13:50:22.658Z,3257
2022-09-06T13:56:43.339Z,7101
2022-09-06T14:03:03.346Z,6705
2022-09-06T14:09:26.355Z,2246
2022-09-06T14:15:46.355Z,3611
2022-09-06T14:22:09.358Z,3770
2022-09-06T14:28:29.490Z,4784
2022-09-06T14:34:52.335Z,3839
2022-09-06T14:41:12.365Z,3984
2022-09-06T14:47:35.307Z,3822
2022-09-06T14:53:55.365Z,3966
2022-09-06T15:00:18.314Z,3953
2022-09-06T15:06:38.584Z,3217
2022-09-06T15:13:01.340Z,3266
2022-09-06T15:19:21.316Z,3289
2022-09-06T15:41:52.340Z,3506
2022-09-06T15:48:15.309Z,3598
2022-09-06T15:54:35.349Z,3603
2022-09-06T16:00:58.312Z,3569
2022-09-06T16:07:18.305Z,3596
2022-09-06T16:13:41.542Z,3416
2022-09-06T16:20:01.522Z,3508
2022-09-06T16:26:24.360Z,3500
2022-09-06T16:32:44.606Z,2815
2022-09-06T16:39:07.375Z,1403
2022-09-06T16:45:27.306Z,1295
2022-09-06T16:51:50.344Z,990
2022-09-06T16:58:10.319Z,994
2022-09-06T17:04:33.315Z,1392
2022-09-06T17:10:53.348Z,883
2022-09-06T17:17:16.310Z,912
2022-09-06T17:23:36.351Z,757
2022-09-06T17:29:59.303Z,579
2022-09-06T17:36:19.376Z,621
2022-09-06T17:42:42.304Z,476
2022-09-06T17:49:02.356Z,315
2022-09-06T17:55:25.315Z,226
2022-09-06T18:01:45.390Z,132
2022-09-06T18:08:08.328Z,50
2022-09-06T18:14:28.311Z,18
2022-09-06T18:20:51.351Z,6
2022-09-06T18:27:11.310Z,1
2022-09-06T18:33:34.578Z,0
2022-09-06T18:39:54.346Z,0
2022-09-06T18:46:17.383Z,0
2022-09-06T18:52:37.330Z,0
2022-09-06T18:59:00.302Z,0
2022-09-06T19:05:20.349Z,0
2022-09-06T19:11:43.317Z,0
2022-09-06T19:18:03.530Z,0
2022-09-06T19:24:26.586Z,0
2022-09-06T19:30:46.354Z,0
2022-09-06T19:37:09.323Z,0
2022-09-06T19:43:29.309Z,0
2022-09-06T19:49:52.473Z,0
2022-09-06T19:56:12.304Z,0
2022-09-06T20:02:35.424Z,0
2022-09-06T20:08:55.308Z,0
2022-09-06T20:15:18.303Z,0
2022-09-06T20:21:38.359Z,0
2022-09-06T20:28:01.307Z,0
2022-09-06T20:34:21.341Z,0
2022-09-06T20:40:44.311Z,0
2022-09-06T20:47:04.352Z,0
2022-09-06T20:53:27.349Z,0
2022-09-06T20:59:47.296Z,0
2022-09-06T21:22:18.354Z,0
2022-09-06T21:28:41.305Z,0
2022-09-06T21:35:01.354Z,0
2022-09-06T21:41:24.304Z,0
2022-09-06T21:47:44.310Z,0
2022-09-06T21:54:07.360Z,0
2022-09-06T22:00:27.303Z,0
2022-09-06T22:23:24.312Z,0
2022-09-06T22:29:44.370Z,0
2022-09-06T22:36:07.322Z,0
2022-09-06T22:42:27.309Z,0
2022-09-06T22:48:50.370Z,0
2022-09-06T22:55:10.318Z,0
2022-09-06T23:01:33.345Z,0
2022-09-06T23:07:53.308Z,0
2022-09-06T23:14:16.324Z,0
2022-09-06T23:20:36.326Z,0
2022-09-06T23:26:59.358Z,0
2022-09-06T23:33:19.356Z,0
2022-09-06T23:39:42.366Z,0
2022-09-06T23:46:02.386Z,0
2022-09-06T23:52:25.347Z,0
2022-09-06T23:58:45.301Z,0
